Time;durP1;ratioP1;P1;durP2;ratioP2;P2;SDS_P1;SDS_P2;PMS_P1;PMS_P2;Temp;Humidity;BMP_temperature;BMP_pressure;BME280_temperature;BME280_humidity;BME280_pressure;Samples;Min_cycle;Max_cycle;Signal;HPM_P1;HPM_P2
2022/06/05 00:01:25;;;;;;;27.35;14.45;;;13.20;99.90;;;;;;5040589;28;20029;-75
2022/06/05 00:04:08;;;;;;;27.50;14.90;;;13.20;99.90;;;;;;5045530;28;20043;-74
2022/06/05 00:07:12;;;;;;;25.42;14.20;;;13.20;99.90;;;;;;5036887;28;20025;-74
2022/06/05 00:10:01;;;;;;;19.40;11.73;;;13.20;99.90;;;;;;5043838;28;20082;-75
2022/06/05 00:12:44;;;;;;;;;;;13.20;99.90;;;;;;5047192;28;20163;-75
2022/06/05 00:15:10;;;;;;;22.25;12.13;;;13.20;99.90;;;;;;5024672;28;19957;-75
2022/06/05 00:17:36;;;;;;;24.40;13.20;;;13.20;99.90;;;;;;5051346;28;20431;-75
2022/06/05 00:20:05;;;;;;;24.60;13.70;;;13.20;99.90;;;;;;5032660;28;20047;-74
2022/06/05 00:22:30;;;;;;;23.52;12.07;;;13.20;99.90;;;;;;5032274;28;20037;-75
2022/06/05 00:24:56;;;;;;;21.52;12.27;;;13.20;99.90;;;;;;5042369;28;20511;-75
2022/06/05 00:27:29;;;;;;;18.75;11.68;;;13.20;99.90;;;;;;5047825;28;20035;-75
2022/06/05 00:30:21;;;;;;;23.25;12.55;;;13.20;99.90;;;;;;5029787;28;20497;-75
2022/06/05 00:33:11;;;;;;;20.75;11.52;;;13.20;99.90;;;;;;5036871;28;20492;-75
2022/06/05 00:35:56;;;;;;;19.63;12.00;;;13.20;99.90;;;;;;5046067;28;20402;-75
2022/06/05 00:38:51;;;;;;;21.25;12.80;;;13.30;99.90;;;;;;5050127;28;20042;-75
2022/06/05 00:41:41;;;;;;;20.13;12.18;;;13.30;99.90;;;;;;5036654;28;20044;-74
2022/06/05 00:44:09;;;;;;;;;;;13.30;99.90;;;;;;5051138;28;20045;-76
2022/06/05 00:46:37;;;;;;;22.10;12.30;;;13.30;99.90;;;;;;5040432;28;20909;-75
2022/06/05 00:49:04;;;;;;;22.73;11.70;;;13.30;99.90;;;;;;5034674;28;20384;-75
2022/06/05 00:51:29;;;;;;;16.60;10.50;;;13.30;99.90;;;;;;5034008;28;20082;-75
2022/06/05 00:53:55;;;;;;;18.85;10.65;;;13.30;99.90;;;;;;5043279;28;20024;-75
2022/06/05 00:56:21;;;;;;;18.65;11.48;;;13.30;99.90;;;;;;5030098;28;20028;-75
2022/06/05 00:58:46;;;;;;;19.67;11.95;;;13.30;99.90;;;;;;5034745;28;20032;-75
2022/06/05 01:01:12;;;;;;;20.08;12.50;;;13.30;99.90;;;;;;5047820;28;20028;-74
2022/06/05 01:03:38;;;;;;;18.58;11.13;;;13.30;99.90;;;;;;5035564;28;20139;-75
2022/06/05 01:06:04;;;;;;;19.20;11.73;;;13.30;99.90;;;;;;5034634;28;20045;-75
2022/06/05 01:08:30;;;;;;;18.70;11.00;;;13.30;99.90;;;;;;5028518;28;20048;-75
2022/06/05 01:10:58;;;;;;;20.05;11.10;;;13.30;99.90;;;;;;5055500;28;20033;-75
2022/06/05 01:13:38;;;;;;;19.23;11.13;;;13.30;99.90;;;;;;5044794;28;20029;-75
2022/06/05 01:16:19;;;;;;;14.10;9.73;;;13.30;99.90;;;;;;5051005;28;20044;-75
2022/06/05 01:19:04;;;;;;;15.63;10.88;;;13.30;99.90;;;;;;5046444;28;20033;-75
2022/06/05 01:21:45;;;;;;;15.73;10.68;;;13.30;99.90;;;;;;5028653;28;20037;-75
2022/06/05 01:24:19;;;;;;;17.73;11.32;;;13.30;99.90;;;;;;5041024;28;21152;-75
2022/06/05 01:26:44;;;;;;;20.90;11.10;;;13.30;99.90;;;;;;5045089;28;20143;-75
2022/06/05 01:29:25;;;;;;;13.80;9.82;;;13.30;99.90;;;;;;5052183;28;20124;-75
2022/06/05 01:32:01;;;;;;;15.57;10.50;;;13.30;99.90;;;;;;5029920;28;20033;-75
2022/06/05 01:34:35;;;;;;;15.57;10.30;;;13.30;99.90;;;;;;5035666;28;20064;-75
2022/06/05 01:37:17;;;;;;;20.30;11.77;;;13.30;99.90;;;;;;5043755;28;20031;-75
2022/06/05 01:40:05;;;;;;;16.10;10.55;;;13.30;99.90;;;;;;5045228;28;20514;-75
2022/06/05 01:42:59;;;;;;;20.17;11.82;;;13.30;99.90;;;;;;5038294;28;20040;-74
2022/06/05 01:45:36;;;;;;;16.08;10.93;;;13.30;99.90;;;;;;5030166;28;20044;-75
2022/06/05 01:48:05;;;;;;;16.58;10.80;;;13.30;99.90;;;;;;5039568;28;20553;-74
2022/06/05 01:50:47;;;;;;;20.45;11.77;;;13.30;99.90;;;;;;5043151;28;20045;-75
2022/06/05 01:53:34;;;;;;;16.63;11.57;;;13.30;99.90;;;;;;5039263;28;20037;-75
2022/06/05 01:56:06;;;;;;;16.73;11.05;;;13.30;99.90;;;;;;5023448;28;20033;-75
2022/06/05 01:58:53;;;;;;;20.38;13.02;;;13.30;99.90;;;;;;5026925;28;20037;-76
2022/06/05 02:01:24;;;;;;;19.52;12.23;;;13.30;99.90;;;;;;5045543;28;20111;-76
2022/06/05 02:04:04;;;;;;;20.17;12.50;;;13.30;99.90;;;;;;5027196;28;20086;-75
2022/06/05 02:06:35;;;;;;;18.95;11.60;;;13.30;99.90;;;;;;5049730;28;20029;-75
2022/06/05 02:09:29;;;;;;;16.73;11.30;;;13.30;99.90;;;;;;5048865;28;20037;-75
2022/06/05 02:11:55;;;;;;;17.67;11.15;;;13.30;99.90;;;;;;5051552;28;20044;-75
2022/06/05 02:14:21;;;;;;;20.05;13.52;;;13.30;99.90;;;;;;5029396;28;20036;-74
2022/06/05 02:16:46;;;;;;;22.42;13.80;;;13.30;99.90;;;;;;5053543;28;20028;-74
2022/06/05 02:19:16;;;;;;;22.85;13.95;;;13.30;99.90;;;;;;5048871;28;20037;-75
2022/06/05 02:21:42;;;;;;;20.40;12.63;;;13.40;99.90;;;;;;5027109;28;20025;-76
2022/06/05 02:24:10;;;;;;;21.75;13.48;;;13.40;99.90;;;;;;5027895;28;20079;-75
2022/06/05 02:26:37;;;;;;;18.42;12.20;;;13.30;99.90;;;;;;5044586;28;20037;-75
2022/06/05 02:29:13;;;;;;;21.55;13.30;;;13.40;99.90;;;;;;5046190;28;20067;-75
2022/06/05 02:31:41;;;;;;;24.58;14.63;;;13.40;99.90;;;;;;5045461;28;20798;-75
2022/06/05 02:34:13;;;;;;;25.55;14.57;;;13.40;99.90;;;;;;5059593;28;20036;-75
2022/06/05 02:36:45;;;;;;;27.23;15.88;;;13.40;99.90;;;;;;5028471;28;20033;-75
2022/06/05 02:39:41;;;;;;;22.90;15.13;;;13.40;99.90;;;;;;5043192;28;20048;-75
2022/06/05 02:42:09;;;;;;;27.83;15.85;;;13.40;99.90;;;;;;5041412;28;20060;-75
2022/06/05 02:44:44;;;;;;;30.38;16.73;;;13.40;99.90;;;;;;5042093;28;20045;-75
2022/06/05 02:47:33;;;;;;;29.70;15.90;;;13.40;99.90;;;;;;5035464;28;20072;-75
2022/06/05 02:50:30;;;;;;;30.38;17.58;;;13.40;99.90;;;;;;5045173;28;20402;-75
2022/06/05 02:53:05;;;;;;;33.33;17.60;;;13.40;99.90;;;;;;5011235;28;20538;-74
2022/06/05 02:55:31;;;;;;;32.30;17.63;;;13.40;99.90;;;;;;5045063;28;20049;-75
2022/06/05 02:57:57;;;;;;;30.45;18.92;;;13.40;99.90;;;;;;5052071;28;20351;-75
2022/06/05 03:00:26;;;;;;;37.60;20.13;;;13.40;99.90;;;;;;5051580;28;20566;-75
2022/06/05 03:05:38;;;;;;;36.13;20.35;;;13.40;99.90;;;;;;5051025;28;20044;-74
2022/06/05 03:08:05;;;;;;;35.15;19.77;;;13.40;99.90;;;;;;5029070;28;20037;-75
2022/06/05 03:10:32;;;;;;;35.08;20.35;;;13.40;99.90;;;;;;5031085;28;20028;-75
2022/06/05 03:12:57;;;;;;;38.60;21.55;;;13.40;99.90;;;;;;5044612;28;20065;-75
2022/06/05 03:15:23;;;;;;;38.65;20.98;;;13.40;99.90;;;;;;5049054;28;20100;-75
2022/06/05 03:17:49;;;;;;;36.63;21.08;;;13.40;99.90;;;;;;5030321;28;20033;-75
2022/06/05 03:20:16;;;;;;;38.45;21.83;;;13.40;99.90;;;;;;5046523;28;20041;-75
2022/06/05 03:22:42;;;;;;;41.97;21.88;;;13.40;99.90;;;;;;5031626;28;20020;-75
2022/06/05 03:25:11;;;;;;;44.10;21.15;;;13.50;99.90;;;;;;5035505;28;20044;-76
2022/06/05 03:27:37;;;;;;;43.47;22.60;;;13.50;99.90;;;;;;5031900;28;20148;-74
2022/06/05 03:30:03;;;;;;;44.20;21.63;;;13.40;99.90;;;;;;5058995;28;20115;-74
2022/06/05 03:32:30;;;;;;;39.17;21.48;;;13.50;99.90;;;;;;5043219;28;20037;-75
2022/06/05 03:34:56;;;;;;;47.83;24.23;;;13.40;99.90;;;;;;5048265;28;20098;-74
2022/06/05 03:37:22;;;;;;;43.80;22.13;;;13.40;99.90;;;;;;5050655;28;20032;-75
2022/06/05 03:39:47;;;;;;;37.00;20.58;;;13.40;99.90;;;;;;5043704;28;20044;-74
2022/06/05 03:42:13;;;;;;;46.40;22.98;;;13.40;99.90;;;;;;5048911;28;20061;-75
2022/06/05 03:44:40;;;;;;;47.10;24.08;;;13.40;99.90;;;;;;5028463;28;20074;-76
2022/06/05 03:47:07;;;;;;;43.05;22.02;;;13.40;99.90;;;;;;5030226;28;20055;-75
2022/06/05 03:49:34;;;;;;;43.35;22.83;;;13.40;99.90;;;;;;5052905;28;20497;-75
2022/06/05 03:52:00;;;;;;;40.55;21.88;;;13.40;99.90;;;;;;5028541;28;20036;-75
2022/06/05 03:54:26;;;;;;;50.35;24.40;;;13.40;99.90;;;;;;5033636;28;20124;-75
2022/06/05 03:56:52;;;;;;;35.25;21.90;;;13.40;99.90;;;;;;5053174;28;20170;-75
2022/06/05 03:59:17;;;;;;;45.60;23.55;;;13.40;99.90;;;;;;5035639;28;20064;-75
2022/06/05 04:01:43;;;;;;;46.45;24.27;;;13.40;99.90;;;;;;5055697;28;20040;-75
2022/06/05 04:04:09;;;;;;;45.03;24.75;;;13.40;99.90;;;;;;5052975;28;20064;-75
2022/06/05 04:06:34;;;;;;;45.78;24.00;;;13.40;99.90;;;;;;5049227;28;20029;-75
2022/06/05 04:09:03;;;;;;;44.95;22.63;;;13.40;99.90;;;;;;5046078;28;20116;-75
2022/06/05 04:11:30;;;;;;;49.95;24.02;;;13.50;99.90;;;;;;5057244;28;20482;-75
2022/06/05 04:13:56;;;;;;;45.95;22.52;;;13.40;99.90;;;;;;5034594;28;20045;-76
2022/06/05 04:16:25;;;;;;;50.60;24.63;;;13.40;99.90;;;;;;5051099;28;20029;-76
2022/06/05 04:18:52;;;;;;;48.35;24.13;;;13.40;99.90;;;;;;5045856;28;20045;-74
2022/06/05 04:21:20;;;;;;;50.90;25.20;;;13.40;99.90;;;;;;5046407;28;20032;-75
2022/06/05 04:23:46;;;;;;;48.70;25.13;;;13.40;99.90;;;;;;5023741;28;20398;-76
2022/06/05 04:26:15;;;;;;;45.85;24.90;;;13.40;99.90;;;;;;5029831;28;20041;-76
2022/06/05 04:28:41;;;;;;;47.33;25.23;;;13.50;99.90;;;;;;5035991;28;20064;-76
2022/06/05 04:31:21;;;;;;;47.92;24.52;;;13.40;99.90;;;;;;5052726;28;20432;-75
2022/06/05 04:33:48;;;;;;;51.17;25.98;;;13.50;99.90;;;;;;5053683;28;20529;-74
2022/06/05 04:36:14;;;;;;;47.00;25.15;;;13.50;99.90;;;;;;5048834;28;20040;-75
2022/06/05 04:38:40;;;;;;;43.28;23.48;;;13.50;99.90;;;;;;5037455;28;20135;-75
2022/06/05 04:41:06;;;;;;;49.47;25.25;;;13.50;99.90;;;;;;5039450;28;20467;-75
2022/06/05 04:43:32;;;;;;;44.42;23.00;;;13.50;99.90;;;;;;5034550;28;20502;-75
2022/06/05 04:45:58;;;;;;;49.33;25.55;;;13.50;99.90;;;;;;5028806;28;20035;-75
2022/06/05 04:48:24;;;;;;;41.95;23.95;;;13.50;99.90;;;;;;5050496;28;20510;-75
2022/06/05 04:50:50;;;;;;;61.55;27.35;;;13.50;99.90;;;;;;5040470;28;20163;-75
2022/06/05 04:53:15;;;;;;;49.58;25.45;;;13.50;99.90;;;;;;5054361;28;20116;-75
2022/06/05 04:55:41;;;;;;;52.05;26.45;;;13.50;99.90;;;;;;5028283;28;20171;-75
2022/06/05 04:58:07;;;;;;;51.95;24.65;;;13.50;99.90;;;;;;5047191;28;20037;-75
2022/06/05 05:00:32;;;;;;;55.55;26.33;;;13.50;99.90;;;;;;5046301;28;20247;-75
2022/06/05 05:02:58;;;;;;;49.10;24.52;;;13.50;99.90;;;;;;5043989;28;20032;-75
2022/06/05 05:05:24;;;;;;;52.03;24.92;;;13.50;99.90;;;;;;5044930;28;20029;-76
2022/06/05 05:07:50;;;;;;;49.28;24.23;;;13.50;99.90;;;;;;5028123;28;20037;-75
2022/06/05 05:10:15;;;;;;;49.50;24.55;;;13.60;99.90;;;;;;5045821;28;20091;-75
2022/06/05 05:12:41;;;;;;;40.88;23.02;;;13.50;99.90;;;;;;5050368;28;20051;-75
2022/06/05 05:15:08;;;;;;;45.47;24.10;;;13.60;99.90;;;;;;5046056;28;20503;-76
2022/06/05 05:17:34;;;;;;;47.65;26.02;;;13.50;99.90;;;;;;5046057;28;20047;-75
2022/06/05 05:20:00;;;;;;;41.38;21.48;;;13.60;99.90;;;;;;5043588;28;20137;-76
2022/06/05 05:22:25;;;;;;;53.80;26.35;;;13.60;99.90;;;;;;5044799;28;20028;-75
2022/06/05 05:24:51;;;;;;;45.10;24.90;;;13.60;99.90;;;;;;5028151;28;20045;-75
2022/06/05 05:27:19;;;;;;;58.55;27.42;;;13.60;99.90;;;;;;5045734;28;20035;-74
2022/06/05 05:29:44;;;;;;;43.88;24.80;;;13.60;99.90;;;;;;5029732;28;20029;-74
2022/06/05 05:32:10;;;;;;;44.42;23.27;;;13.60;99.90;;;;;;5044180;28;20033;-74
2022/06/05 05:34:37;;;;;;;44.58;22.67;;;13.60;99.90;;;;;;5043933;28;20124;-75
2022/06/05 05:37:03;;;;;;;40.42;22.33;;;13.60;99.90;;;;;;5034474;28;20037;-75
2022/06/05 05:42:14;;;;;;;46.65;24.38;;;13.60;99.90;;;;;;5044827;28;20096;-76
2022/06/05 05:44:51;;;;;;;54.88;25.50;;;13.60;99.90;;;;;;5045462;28;20056;-76
2022/06/05 05:47:30;;;;;;;48.60;24.45;;;13.70;99.90;;;;;;5029188;28;20045;-75
2022/06/05 05:50:11;;;;;;;61.20;26.58;;;13.70;99.90;;;;;;5027793;28;20040;-76
2022/06/05 05:52:37;;;;;;;51.05;25.67;;;13.70;99.90;;;;;;5019948;28;20079;-76
2022/06/05 05:55:04;;;;;;;48.35;25.00;;;13.70;99.90;;;;;;5015151;28;20108;-76
2022/06/05 05:57:30;;;;;;;36.88;22.58;;;13.70;99.90;;;;;;5039935;28;20106;-76
2022/06/05 05:59:55;;;;;;;46.70;23.85;;;13.70;99.90;;;;;;5044636;28;20068;-76
2022/06/05 06:02:23;;;;;;;59.65;27.50;;;13.70;99.90;;;;;;5039245;28;20036;-75
2022/06/05 06:04:51;;;;;;;54.78;25.50;;;13.70;99.90;;;;;;5043918;28;20047;-76
2022/06/05 06:07:17;;;;;;;44.22;25.15;;;13.70;99.90;;;;;;5049484;28;20090;-76
2022/06/05 06:09:43;;;;;;;54.35;25.75;;;13.70;99.90;;;;;;5032423;28;20772;-76
2022/06/05 06:12:10;;;;;;;52.40;24.52;;;13.70;99.90;;;;;;5042236;28;20560;-76
2022/06/05 06:14:37;;;;;;;55.97;26.58;;;13.70;99.90;;;;;;5029282;28;20037;-76
2022/06/05 06:17:04;;;;;;;43.00;24.25;;;13.70;99.90;;;;;;5045415;28;20114;-76
2022/06/05 06:19:30;;;;;;;48.80;23.10;;;13.70;99.90;;;;;;5026728;28;20045;-76
2022/06/05 06:21:55;;;;;;;60.13;26.40;;;13.70;99.90;;;;;;5044837;28;20078;-76
2022/06/05 06:24:21;;;;;;;51.20;25.13;;;13.70;99.90;;;;;;5046456;28;20090;-76
2022/06/05 06:26:47;;;;;;;49.17;26.10;;;13.70;99.90;;;;;;5047784;28;20124;-75
2022/06/05 06:29:12;;;;;;;49.80;24.55;;;13.70;99.90;;;;;;5050667;28;20112;-76
2022/06/05 06:31:39;;;;;;;43.75;24.42;;;13.80;99.90;;;;;;5057238;28;20055;-75
2022/06/05 06:34:05;;;;;;;51.28;25.52;;;13.80;99.90;;;;;;5031877;28;20040;-76
2022/06/05 06:36:32;;;;;;;55.50;26.02;;;13.80;99.90;;;;;;5042922;28;20053;-75
2022/06/05 06:38:58;;;;;;;43.00;24.38;;;13.80;99.90;;;;;;5035554;28;20036;-76
2022/06/05 06:41:24;;;;;;;42.95;22.88;;;13.80;99.90;;;;;;5029655;28;20036;-75
2022/06/05 06:43:50;;;;;;;50.05;24.17;;;13.90;99.90;;;;;;5046834;28;20052;-76
2022/06/05 06:46:18;;;;;;;57.75;27.23;;;13.90;99.90;;;;;;5045967;28;20257;-76
2022/06/05 06:48:44;;;;;;;52.13;25.90;;;13.90;99.90;;;;;;5047713;28;20036;-76
2022/06/05 06:51:10;;;;;;;59.28;25.73;;;13.90;99.90;;;;;;5044347;28;20453;-75
2022/06/05 06:53:38;;;;;;;54.00;25.92;;;14.00;99.90;;;;;;5039820;28;20029;-76
2022/06/05 06:56:16;;;;;;;48.58;25.20;;;14.00;99.90;;;;;;5041104;28;20258;-76
2022/06/05 06:58:43;;;;;;;47.85;25.73;;;14.00;99.90;;;;;;5033247;28;20037;-76
2022/06/05 07:01:09;;;;;;;54.00;27.13;;;14.10;99.90;;;;;;5032173;28;20032;-76
2022/06/05 07:03:35;;;;;;;50.22;26.48;;;14.10;99.90;;;;;;5044571;28;20025;-76
2022/06/05 07:06:03;;;;;;;55.28;26.65;;;14.10;99.90;;;;;;5044198;28;20032;-76
2022/06/05 07:08:29;;;;;;;56.15;26.73;;;14.10;99.90;;;;;;5050573;28;20032;-76
2022/06/05 07:10:55;;;;;;;51.33;24.83;;;14.20;99.90;;;;;;5055433;28;20036;-75
2022/06/05 07:13:20;;;;;;;61.53;27.60;;;14.20;99.90;;;;;;5048695;28;20033;-76
2022/06/05 07:15:46;;;;;;;52.55;26.58;;;14.20;99.90;;;;;;5048820;28;20033;-76
2022/06/05 07:18:12;;;;;;;54.38;26.27;;;14.20;99.90;;;;;;5030953;28;20033;-76
2022/06/05 07:20:40;;;;;;;51.97;25.23;;;14.20;99.90;;;;;;5047875;28;20041;-76
2022/06/05 07:23:08;;;;;;;61.58;28.45;;;14.30;99.90;;;;;;5049648;28;20057;-76
2022/06/05 07:25:34;;;;;;;57.55;27.65;;;14.20;99.90;;;;;;5045997;28;20056;-76
2022/06/05 07:28:00;;;;;;;58.25;27.00;;;14.30;99.90;;;;;;5031438;28;20115;-76
2022/06/05 07:30:26;;;;;;;57.75;26.63;;;14.30;99.90;;;;;;5033163;28;20079;-76
2022/06/05 07:32:52;;;;;;;50.13;25.27;;;14.30;99.90;;;;;;5044538;28;20063;-76
2022/06/05 07:35:19;;;;;;;58.25;26.92;;;14.30;99.90;;;;;;5053721;28;20039;-75
2022/06/05 07:37:45;;;;;;;56.53;26.35;;;14.30;99.90;;;;;;5048754;28;20029;-76
2022/06/05 07:40:12;;;;;;;53.35;25.27;;;14.30;99.90;;;;;;5051604;28;20090;-76
2022/06/05 07:42:39;;;;;;;57.13;26.35;;;14.30;99.90;;;;;;5060962;28;20033;-76
2022/06/05 07:45:07;;;;;;;59.10;28.95;;;14.30;99.90;;;;;;5049811;28;20406;-75
2022/06/05 07:47:33;;;;;;;61.60;29.13;;;14.30;99.90;;;;;;5050225;28;20044;-76
2022/06/05 07:49:59;;;;;;;58.85;27.48;;;14.30;99.90;;;;;;5045730;28;20032;-76
2022/06/05 07:55:11;;;;;;;54.58;26.20;;;14.30;99.90;;;;;;5050182;28;20040;-75
2022/06/05 07:57:37;;;;;;;51.38;26.55;;;14.40;99.90;;;;;;5040116;28;20557;-75
2022/06/05 08:00:05;;;;;;;51.03;25.50;;;14.40;99.90;;;;;;5045222;28;20033;-75
2022/06/05 08:02:31;;;;;;;50.20;25.55;;;14.40;99.90;;;;;;5030445;28;20115;-74
2022/06/05 08:04:57;;;;;;;48.95;25.35;;;14.40;99.90;;;;;;5040617;28;20060;-75
2022/06/05 08:07:29;;;;;;;65.43;28.88;;;14.40;99.90;;;;;;5044314;28;20110;-76
2022/06/05 08:09:55;;;;;;;60.10;28.85;;;14.40;99.90;;;;;;5033412;28;20040;-76
2022/06/05 08:12:23;;;;;;;62.22;28.02;;;14.40;99.90;;;;;;5026505;28;20040;-76
2022/06/05 08:14:51;;;;;;;52.47;26.83;;;14.40;99.90;;;;;;5036235;28;20094;-75
2022/06/05 08:17:21;;;;;;;45.50;24.75;;;14.40;99.90;;;;;;5026998;28;20495;-75
2022/06/05 08:19:47;;;;;;;58.35;26.38;;;14.40;99.90;;;;;;5046551;28;20490;-76
2022/06/05 08:22:17;;;;;;;61.28;27.15;;;14.40;99.90;;;;;;5045443;28;20626;-75
2022/06/05 08:24:43;;;;;;;50.75;26.48;;;14.40;99.90;;;;;;5043176;28;20040;-76
2022/06/05 08:27:11;;;;;;;44.05;26.35;;;14.40;99.90;;;;;;5038935;28;20037;-76
2022/06/05 08:29:38;;;;;;;58.13;26.25;;;14.40;99.90;;;;;;5035425;28;20131;-76
2022/06/05 08:32:05;;;;;;;59.67;26.65;;;14.40;99.90;;;;;;5018305;28;20050;-75
2022/06/05 08:34:31;;;;;;;48.15;27.20;;;14.40;99.90;;;;;;5016120;28;20562;-76
2022/06/05 08:42:35;;;;;;;53.22;27.23;;;14.40;99.90;;;;;;5045427;28;20040;-76
2022/06/05 08:45:13;;;;;;;53.33;27.15;;;14.40;99.90;;;;;;5035811;28;20037;-75
2022/06/05 08:47:51;;;;;;;53.97;27.60;;;14.40;99.90;;;;;;5030584;28;20562;-76
2022/06/05 08:50:38;;;;;;;57.75;28.25;;;14.40;99.90;;;;;;5048801;28;20029;-75
2022/06/05 08:53:21;;;;;;;50.13;25.38;;;14.40;99.90;;;;;;5030728;28;20118;-75
2022/06/05 08:55:49;;;;;;;53.72;27.25;;;14.40;99.90;;;;;;5046785;28;20060;-75
2022/06/05 08:58:19;;;;;;;52.70;27.15;;;14.50;99.90;;;;;;5048766;28;20060;-76
2022/06/05 09:00:52;;;;;;;42.35;26.10;;;14.50;99.90;;;;;;5048403;28;20041;-76
2022/06/05 09:03:27;;;;;;;46.58;26.40;;;14.50;99.90;;;;;;5030606;28;20029;-75
2022/06/05 09:05:57;;;;;;;55.90;27.73;;;14.50;99.90;;;;;;5030570;28;20558;-76
2022/06/05 09:08:28;;;;;;;51.58;27.35;;;14.50;99.90;;;;;;5048347;28;20086;-75
2022/06/05 09:10:59;;;;;;;55.47;28.48;;;14.50;99.90;;;;;;5046514;28;20745;-75
2022/06/05 09:13:35;;;;;;;50.78;27.80;;;14.60;99.90;;;;;;5050769;28;20083;-75
2022/06/05 09:16:04;;;;;;;57.90;29.15;;;14.60;99.90;;;;;;5048722;28;20044;-75
2022/06/05 09:18:37;;;;;;;49.50;26.88;;;14.70;99.90;;;;;;5048026;28;20032;-75
2022/06/05 09:21:32;;;;;;;57.25;27.95;;;14.70;99.90;;;;;;5046999;28;20768;-74
2022/06/05 09:24:04;;;;;;;49.80;25.48;;;14.80;99.90;;;;;;5038560;28;20055;-74
2022/06/05 09:26:44;;;;;;;50.75;25.85;;;14.80;99.90;;;;;;5048523;28;20055;-74
2022/06/05 09:29:34;;;;;;;43.15;24.55;;;14.80;99.90;;;;;;5048273;28;20033;-74
2022/06/05 09:32:12;;;;;;;;;;;14.80;99.90;;;;;;5048559;28;20171;-74
2022/06/05 09:34:48;;;;;;;49.38;24.92;;;14.80;99.90;;;;;;5047746;28;19918;-74
2022/06/05 09:37:22;;;;;;;41.45;25.58;;;14.90;99.90;;;;;;5043605;28;20107;-74
2022/06/05 09:39:59;;;;;;;51.40;27.60;;;14.90;99.90;;;;;;5028107;28;20530;-75
2022/06/05 09:42:42;;;;;;;52.00;27.70;;;14.90;99.90;;;;;;5027473;28;20123;-74
2022/06/05 09:45:38;;;;;;;48.10;26.13;;;14.90;99.90;;;;;;5034667;28;20041;-74
2022/06/05 09:48:19;;;;;;;43.15;24.60;;;14.90;99.90;;;;;;5031903;28;20053;-74
2022/06/05 09:50:44;;;;;;;49.58;27.23;;;14.90;99.90;;;;;;5048073;28;20044;-74
2022/06/05 09:53:25;;;;;;;42.90;24.50;;;14.90;99.90;;;;;;5047652;28;20033;-73
2022/06/05 09:55:59;;;;;;;47.30;26.35;;;14.90;99.90;;;;;;5046624;28;20398;-75
2022/06/05 09:58:55;;;;;;;48.33;26.90;;;14.90;99.90;;;;;;5026666;28;20033;-74
2022/06/05 10:01:29;;;;;;;47.25;26.73;;;14.90;99.90;;;;;;5045459;28;20380;-74
2022/06/05 10:03:57;;;;;;;41.58;26.00;;;15.00;99.90;;;;;;5041564;28;20589;-74
2022/06/05 10:07:08;;;;;;;46.75;25.75;;;15.00;99.90;;;;;;5045832;28;20070;-76
2022/06/05 10:09:36;;;;;;;40.72;25.55;;;15.00;99.90;;;;;;5044098;28;20044;-76
2022/06/05 10:12:07;;;;;;;50.58;28.48;;;15.00;99.90;;;;;;5026498;28;20392;-75
2022/06/05 10:14:32;;;;;;;44.38;27.13;;;15.00;99.90;;;;;;5027888;28;20136;-76
2022/06/05 10:17:18;;;;;;;46.90;28.42;;;15.00;99.90;;;;;;5027740;28;20506;-76
2022/06/05 10:20:18;;;;;;;49.22;28.38;;;15.00;99.90;;;;;;4975159;28;20392;-76
2022/06/05 10:22:53;;;;;;;45.53;26.40;;;15.00;99.90;;;;;;5029596;28;20036;-74
2022/06/05 10:25:27;;;;;;;46.90;26.48;;;15.00;99.90;;;;;;5028890;28;20029;-75
2022/06/05 10:27:56;;;;;;;54.45;28.17;;;15.00;99.90;;;;;;5051047;28;20067;-74
2022/06/05 10:30:26;;;;;;;44.30;26.52;;;15.10;99.90;;;;;;5051655;28;20454;-75
2022/06/05 10:33:03;;;;;;;45.63;27.25;;;15.10;99.90;;;;;;5051919;28;20063;-75
2022/06/05 10:35:44;;;;;;;47.08;27.42;;;15.10;99.90;;;;;;5033635;28;20029;-75
2022/06/05 10:38:41;;;;;;;49.92;28.23;;;15.10;99.90;;;;;;5051476;28;20091;-75
2022/06/05 10:41:22;;;;;;;48.03;27.02;;;15.20;99.90;;;;;;5015927;28;20084;-75
2022/06/05 10:44:23;;;;;;;50.58;27.73;;;15.20;99.90;;;;;;5032752;28;20077;-74
2022/06/05 10:46:57;;;;;;;46.83;28.30;;;15.20;99.90;;;;;;5051191;28;20037;-75
2022/06/05 10:49:48;;;;;;;43.60;26.52;;;15.30;99.90;;;;;;5051604;28;20040;-74
2022/06/05 10:52:28;;;;;;;49.42;27.25;;;15.30;99.90;;;;;;5051099;28;20025;-74
2022/06/05 10:55:15;;;;;;;48.08;27.17;;;15.40;99.90;;;;;;5051208;28;20032;-74
2022/06/05 10:57:55;;;;;;;44.83;25.40;;;15.40;99.90;;;;;;5051421;28;20040;-75
2022/06/05 11:00:27;;;;;;;43.83;27.63;;;15.40;99.90;;;;;;5032960;28;20049;-74
2022/06/05 11:03:03;;;;;;;43.70;26.10;;;15.40;99.90;;;;;;5033013;28;20575;-75
2022/06/05 11:05:46;;;;;;;49.63;26.98;;;15.50;99.90;;;;;;5050063;28;20028;-74
2022/06/05 11:08:33;;;;;;;40.95;24.10;;;15.50;99.90;;;;;;5033198;28;20556;-76
2022/06/05 11:14:29;;;;;;;50.22;28.23;;;15.60;99.90;;;;;;5050723;28;20128;-75
2022/06/05 11:17:12;;;;;;;45.45;25.95;;;15.70;99.90;;;;;;5053502;28;20029;-75
2022/06/05 11:20:08;;;;;;;44.78;27.45;;;15.80;99.90;;;;;;5051051;28;20040;-75
2022/06/05 11:22:36;;;;;;;42.22;25.60;;;15.80;99.90;;;;;;5049565;28;20035;-75
2022/06/05 11:25:28;;;;;;;45.28;27.77;;;15.90;99.90;;;;;;5049731;28;20071;-76
2022/06/05 11:28:09;;;;;;;43.38;26.92;;;15.90;99.90;;;;;;5029421;28;20080;-76
2022/06/05 11:31:14;;;;;;;40.35;25.67;;;15.90;99.90;;;;;;5037599;28;20753;-75
2022/06/05 11:34:09;;;;;;;41.47;25.90;;;15.90;99.90;;;;;;5002434;28;20048;-76
2022/06/05 11:36:53;;;;;;;43.80;27.10;;;15.90;99.90;;;;;;5034786;28;20064;-75
2022/06/05 11:39:38;;;;;;;39.25;25.08;;;15.90;99.90;;;;;;5048635;28;20040;-75
2022/06/05 11:42:37;;;;;;;43.38;26.23;;;15.80;99.90;;;;;;5030462;28;20030;-75
2022/06/05 11:45:06;;;;;;;42.08;26.27;;;15.80;99.90;;;;;;5047888;28;20800;-75
2022/06/05 11:47:41;;;;;;;39.72;25.75;;;15.80;99.90;;;;;;5030734;28;20052;-76
2022/06/05 11:50:13;;;;;;;40.85;25.90;;;15.80;99.90;;;;;;5049024;28;20040;-76
2022/06/05 11:52:51;;;;;;;42.67;26.70;;;15.80;99.90;;;;;;5025189;28;20406;-76
2022/06/05 11:55:30;;;;;;;40.38;26.55;;;15.80;99.90;;;;;;5034379;28;20114;-75
2022/06/05 11:58:04;;;;;;;42.78;26.02;;;15.90;99.90;;;;;;5043107;28;20406;-75
2022/06/05 12:00:36;;;;;;;38.40;24.55;;;15.90;99.90;;;;;;5047770;28;20102;-75
2022/06/05 12:03:40;;;;;;;38.80;25.60;;;15.90;99.90;;;;;;5030759;28;20029;-75
2022/06/05 12:06:21;;;;;;;38.13;25.70;;;15.90;99.90;;;;;;5028662;28;20021;-75
2022/06/05 12:08:54;;;;;;;38.90;25.83;;;15.90;99.90;;;;;;5036986;28;20029;-75
2022/06/05 12:11:26;;;;;;;41.58;26.05;;;15.90;99.90;;;;;;5048691;28;20865;-75
2022/06/05 12:14:11;;;;;;;41.28;27.20;;;15.90;99.90;;;;;;5031193;28;20029;-76
2022/06/05 12:17:05;;;;;;;41.40;27.23;;;15.90;99.90;;;;;;5048054;28;20037;-76
2022/06/05 12:19:50;;;;;;;43.15;26.98;;;15.90;99.90;;;;;;5030649;28;20044;-75
2022/06/05 12:22:26;;;;;;;40.80;26.45;;;16.00;99.90;;;;;;5030635;28;20574;-75
2022/06/05 12:25:13;;;;;;;44.45;27.38;;;16.00;99.90;;;;;;5029978;28;20403;-76
2022/06/05 12:28:03;;;;;;;41.28;26.60;;;16.00;99.90;;;;;;5030306;28;20025;-76
2022/06/05 12:30:40;;;;;;;39.83;26.75;;;16.10;99.90;;;;;;5047486;28;20617;-76
2022/06/05 12:33:28;;;;;;;43.28;27.85;;;16.10;99.90;;;;;;5030133;28;20075;-74
2022/06/05 12:36:04;;;;;;;43.47;27.95;;;16.10;99.90;;;;;;5048420;28;20060;-74
2022/06/05 12:38:36;;;;;;;44.92;27.75;;;16.20;99.90;;;;;;5048403;28;20097;-74
2022/06/05 12:41:05;;;;;;;36.30;24.38;;;16.30;99.90;;;;;;5048143;28;20048;-74
2022/06/05 12:43:53;;;;;;;38.10;25.50;;;16.30;99.90;;;;;;4998578;28;1152801;-74
2022/06/05 12:46:39;;;;;;;34.58;23.73;;;16.40;99.90;;;;;;5026489;28;20068;-74
2022/06/05 12:49:35;;;;;;;35.50;23.65;;;16.50;99.90;;;;;;4990109;28;20045;-76
2022/06/05 12:52:34;;;;;;;34.50;24.25;;;16.50;99.90;;;;;;5030173;28;20766;-74
2022/06/05 12:55:19;;;;;;;38.15;24.40;;;16.50;99.90;;;;;;5042898;28;20487;-75
2022/06/05 12:57:44;;;;;;;38.25;24.73;;;16.50;99.90;;;;;;5030856;28;20407;-74
2022/06/05 13:00:16;;;;;;;38.42;25.67;;;16.50;99.90;;;;;;5014353;28;20041;-75
2022/06/05 13:02:45;;;;;;;32.78;24.02;;;16.50;99.90;;;;;;5029548;28;20076;-76
2022/06/05 13:05:30;;;;;;;37.72;26.17;;;16.40;99.90;;;;;;5048701;28;20047;-77
2022/06/05 13:08:09;;;;;;;38.90;24.38;;;16.30;99.90;;;;;;5048761;28;20041;-74
2022/06/05 13:10:45;;;;;;;38.75;26.63;;;16.20;99.90;;;;;;5032496;28;20037;-75
2022/06/05 13:13:17;;;;;;;35.17;25.45;;;16.20;99.90;;;;;;5048766;28;20035;-75
2022/06/05 13:15:54;;;;;;;41.45;28.05;;;16.10;99.90;;;;;;5048507;28;20040;-76